Details for Virgin Atlantic at EGLL




Go Back


Latest METAR
Local Time

EGLL 250420Z AUTO VRB03KT 4700 -DZ BKN005 OVC015 13/12 Q1017 TEMPO 6000 NSW

25/05/2018, 05:47:28

Description
Results
Virgin Atlantic Logo
Number of Pilots based at EGLL
2 Pilots Based here
Number of Virgin Atlantic Flights Departed from EGLL
2 Flights Departed
Number of Virgin Atlantic Flights Arrived at EGLL
1 Flights Arrived
Number of Virgin Atlantic Schedules Departing from EGLL
25 Schedules
Number of Virgin Atlantic Schedules Arriving at EGLL
24 Schedules
Number of Virgin Atlantic Schedules Departing from EGLL availible today
22 Schedules Today
Number of Virgin Atlantic Schedules Arriving at EGLL availible today
23 Schedules Today
Average Landing Rate at EGLL
-191 fpm
Virgin Atlantic Average Landing Rate at EGLL
-177 fpm
Total Fuel Purchased at EGLL by Virgin Atlantic
168,623.10 kgs / 371,746.49 lbs

Pilots Based at EGLL


Pilot ID
Pilot Name
Pilot Rank
No. of Flights
No. of Flying Hours
Hashim Iqbal
0
0
Chris Nicholson
40
114.17
Content